sensor_id;sensor_type;location;lat;lon;timestamp;pressure;altitude;pressure_sealevel;temperature;humidity
50710;BME280;37033;49.994;21.992;2023-04-02T00:00:17;98054.20;;;8.46;84.13
50710;BME280;37033;49.994;21.992;2023-04-02T00:03:08;98056.25;;;8.45;84.18
50710;BME280;37033;49.994;21.992;2023-04-02T00:05:41;98056.40;;;8.44;84.15
50710;BME280;37033;49.994;21.992;2023-04-02T00:08:26;98058.58;;;8.44;84.16
50710;BME280;37033;49.994;21.992;2023-04-02T00:10:58;98058.07;;;8.41;84.16
50710;BME280;37033;49.994;21.992;2023-04-02T00:13:33;98062.48;;;8.41;84.21
50710;BME280;37033;49.994;21.992;2023-04-02T00:16:07;98065.71;;;8.40;84.47
50710;BME280;37033;49.994;21.992;2023-04-02T00:18:44;98069.23;;;8.38;84.43
50710;BME280;37033;49.994;21.992;2023-04-02T00:21:16;98073.16;;;8.35;84.53
50710;BME280;37033;49.994;21.992;2023-04-02T00:23:48;98077.40;;;8.31;84.49
50710;BME280;37033;49.994;21.992;2023-04-02T00:26:31;98081.12;;;8.29;84.68
50710;BME280;37033;49.994;21.992;2023-04-02T00:29:04;98081.52;;;8.26;84.81
50710;BME280;37033;49.994;21.992;2023-04-02T00:31:40;98086.34;;;8.26;84.97
50710;BME280;37033;49.994;21.992;2023-04-02T00:34:17;98089.09;;;8.24;84.78
50710;BME280;37033;49.994;21.992;2023-04-02T00:36:49;98092.27;;;8.24;85.07
50710;BME280;37033;49.994;21.992;2023-04-02T00:39:22;98095.74;;;8.23;85.05
50710;BME280;37033;49.994;21.992;2023-04-02T00:41:55;98096.02;;;8.24;85.47
50710;BME280;37033;49.994;21.992;2023-04-02T00:44:35;98097.80;;;8.23;85.46
50710;BME280;37033;49.994;21.992;2023-04-02T00:47:13;98100.83;;;8.23;85.47
50710;BME280;37033;49.994;21.992;2023-04-02T00:49:46;98098.94;;;8.23;85.32
50710;BME280;37033;49.994;21.992;2023-04-02T00:52:22;98102.38;;;8.22;85.11
50710;BME280;37033;49.994;21.992;2023-04-02T00:54:59;98107.38;;;8.22;84.82
50710;BME280;37033;49.994;21.992;2023-04-02T00:57:31;98104.23;;;8.20;84.73
50710;BME280;37033;49.994;21.992;2023-04-02T01:00:17;98107.81;;;8.20;84.59
50710;BME280;37033;49.994;21.992;2023-04-02T01:03:22;98118.29;;;8.19;84.47
50710;BME280;37033;49.994;21.992;2023-04-02T01:06:02;98119.24;;;8.18;84.37
50710;BME280;37033;49.994;21.992;2023-04-02T01:08:55;98123.13;;;8.16;84.46
50710;BME280;37033;49.994;21.992;2023-04-02T01:11:41;98119.27;;;8.15;84.27
50710;BME280;37033;49.994;21.992;2023-04-02T01:14:32;98122.23;;;8.14;84.29
50710;BME280;37033;49.994;21.992;2023-04-02T01:17:13;98125.70;;;8.13;84.43
50710;BME280;37033;49.994;21.992;2023-04-02T01:20:04;98127.31;;;8.09;84.21
50710;BME280;37033;49.994;21.992;2023-04-02T01:22:46;98140.81;;;8.08;84.22
50710;BME280;37033;49.994;21.992;2023-04-02T01:25:25;98142.48;;;8.07;84.44
50710;BME280;37033;49.994;21.992;2023-04-02T01:28:01;98138.99;;;8.05;84.37
50710;BME280;37033;49.994;21.992;2023-04-02T01:30:36;98143.09;;;8.03;84.30
50710;BME280;37033;49.994;21.992;2023-04-02T01:33:07;98144.84;;;8.00;84.37
50710;BME280;37033;49.994;21.992;2023-04-02T01:35:42;98150.48;;;8.00;84.59
50710;BME280;37033;49.994;21.992;2023-04-02T01:38:21;98153.02;;;7.99;84.51
50710;BME280;37033;49.994;21.992;2023-04-02T01:41:01;98160.95;;;7.98;84.59
50710;BME280;37033;49.994;21.992;2023-04-02T01:43:40;98162.80;;;7.93;84.56
50710;BME280;37033;49.994;21.992;2023-04-02T01:46:28;98166.45;;;7.90;84.63
50710;BME280;37033;49.994;21.992;2023-04-02T01:49:08;98173.16;;;7.86;84.51
50710;BME280;37033;49.994;21.992;2023-04-02T01:51:42;98171.73;;;7.84;84.30
50710;BME280;37033;49.994;21.992;2023-04-02T01:54:14;98177.52;;;7.83;84.27
50710;BME280;37033;49.994;21.992;2023-04-02T01:56:46;98180.63;;;7.82;84.01
50710;BME280;37033;49.994;21.992;2023-04-02T01:59:20;98182.92;;;7.82;84.07
50710;BME280;37033;49.994;21.992;2023-04-02T02:01:53;98183.21;;;7.80;83.97
50710;BME280;37033;49.994;21.992;2023-04-02T02:04:26;98192.73;;;7.79;83.97
50710;BME280;37033;49.994;21.992;2023-04-02T02:06:58;98190.38;;;7.77;83.92
50710;BME280;37033;49.994;21.992;2023-04-02T02:09:31;98188.83;;;7.76;83.74
50710;BME280;37033;49.994;21.992;2023-04-02T02:12:04;98191.32;;;7.75;83.97
50710;BME280;37033;49.994;21.992;2023-04-02T02:14:36;98191.84;;;7.73;83.88
50710;BME280;37033;49.994;21.992;2023-04-02T02:17:09;98195.50;;;7.71;83.91
50710;BME280;37033;49.994;21.992;2023-04-02T02:19:46;98197.44;;;7.69;83.87
50710;BME280;37033;49.994;21.992;2023-04-02T02:22:23;98201.06;;;7.69;83.87
50710;BME280;37033;49.994;21.992;2023-04-02T02:24:57;98203.60;;;7.67;83.98
50710;BME280;37033;49.994;21.992;2023-04-02T02:27:56;98206.67;;;7.64;83.88
50710;BME280;37033;49.994;21.992;2023-04-02T02:30:31;98207.96;;;7.64;83.92
50710;BME280;37033;49.994;21.992;2023-04-02T02:33:06;98213.30;;;7.63;83.92
50710;BME280;37033;49.994;21.992;2023-04-02T02:35:42;98215.99;;;7.61;83.89
50710;BME280;37033;49.994;21.992;2023-04-02T02:38:27;98218.83;;;7.60;83.88
50710;BME280;37033;49.994;21.992;2023-04-02T02:41:05;98223.01;;;7.56;83.76
50710;BME280;37033;49.994;21.992;2023-04-02T02:43:40;98221.91;;;7.55;83.70
50710;BME280;37033;49.994;21.992;2023-04-02T02:46:17;98227.24;;;7.54;83.63
50710;BME280;37033;49.994;21.992;2023-04-02T02:48:50;98232.72;;;7.54;83.50
50710;BME280;37033;49.994;21.992;2023-04-02T02:51:26;98234.70;;;7.53;83.46
50710;BME280;37033;49.994;21.992;2023-04-02T02:54:01;98237.81;;;7.50;83.38
50710;BME280;37033;49.994;21.992;2023-04-02T02:56:35;98237.85;;;7.49;83.29
50710;BME280;37033;49.994;21.992;2023-04-02T02:59:09;98244.56;;;7.47;83.29
50710;BME280;37033;49.994;21.992;2023-04-02T03:01:43;98246.48;;;7.45;83.09
50710;BME280;37033;49.994;21.992;2023-04-02T03:04:20;98247.85;;;7.45;83.13
50710;BME280;37033;49.994;21.992;2023-04-02T03:06:54;98245.75;;;7.46;83.00
50710;BME280;37033;49.994;21.992;2023-04-02T03:09:32;98247.58;;;7.46;82.87
50710;BME280;37033;49.994;21.992;2023-04-02T03:12:11;98245.83;;;7.45;82.85
50710;BME280;37033;49.994;21.992;2023-04-02T03:14:55;98246.90;;;7.43;82.72
50710;BME280;37033;49.994;21.992;2023-04-02T03:17:31;98246.11;;;7.41;82.54
50710;BME280;37033;49.994;21.992;2023-04-02T03:20:09;98249.77;;;7.40;82.53
50710;BME280;37033;49.994;21.992;2023-04-02T03:22:46;98250.77;;;7.38;82.55
50710;BME280;37033;49.994;21.992;2023-04-02T03:25:26;98253.25;;;7.38;82.47
50710;BME280;37033;49.994;21.992;2023-04-02T03:28:02;98251.17;;;7.35;82.37
50710;BME280;37033;49.994;21.992;2023-04-02T03:30:39;98254.98;;;7.34;82.23
50710;BME280;37033;49.994;21.992;2023-04-02T03:33:16;98259.24;;;7.33;81.95
50710;BME280;37033;49.994;21.992;2023-04-02T03:35:55;98264.31;;;7.33;81.93
50710;BME280;37033;49.994;21.992;2023-04-02T03:38:29;98270.58;;;7.32;81.75
50710;BME280;37033;49.994;21.992;2023-04-02T03:41:05;98269.77;;;7.31;81.64
50710;BME280;37033;49.994;21.992;2023-04-02T03:43:41;98271.27;;;7.31;81.41
50710;BME280;37033;49.994;21.992;2023-04-02T03:46:23;98272.02;;;7.29;81.72
50710;BME280;37033;49.994;21.992;2023-04-02T03:48:57;98278.83;;;7.30;81.52
50710;BME280;37033;49.994;21.992;2023-04-02T03:51:31;98277.27;;;7.27;81.54
50710;BME280;37033;49.994;21.992;2023-04-02T03:54:04;98285.90;;;7.26;81.55
50710;BME280;37033;49.994;21.992;2023-04-02T03:56:37;98287.34;;;7.25;81.42
50710;BME280;37033;49.994;21.992;2023-04-02T03:59:14;98289.15;;;7.24;81.40
50710;BME280;37033;49.994;21.992;2023-04-02T04:01:52;98291.49;;;7.20;81.61
50710;BME280;37033;49.994;21.992;2023-04-02T04:04:28;98295.04;;;7.19;81.59
50710;BME280;37033;49.994;21.992;2023-04-02T04:07:01;98299.27;;;7.17;81.48
50710;BME280;37033;49.994;21.992;2023-04-02T04:09:33;98303.80;;;7.16;81.53
50710;BME280;37033;49.994;21.992;2023-04-02T04:12:17;98306.11;;;7.15;81.59
50710;BME280;37033;49.994;21.992;2023-04-02T04:14:55;98307.98;;;7.13;81.49
50710;BME280;37033;49.994;21.992;2023-04-02T04:17:32;98311.45;;;7.11;81.77
50710;BME280;37033;49.994;21.992;2023-04-02T04:20:16;98314.73;;;7.09;81.65
50710;BME280;37033;49.994;21.992;2023-04-02T04:22:51;98318.70;;;7.08;81.56
50710;BME280;37033;49.994;21.992;2023-04-02T04:25:26;98317.29;;;7.08;81.56
50710;BME280;37033;49.994;21.992;2023-04-02T04:28:09;98324.92;;;7.09;81.51
50710;BME280;37033;49.994;21.992;2023-04-02T04:30:51;98324.65;;;7.08;81.53
50710;BME280;37033;49.994;21.992;2023-04-02T04:33:26;98320.27;;;7.08;81.52
50710;BME280;37033;49.994;21.992;2023-04-02T04:36:04;98321.52;;;7.08;81.50
50710;BME280;37033;49.994;21.992;2023-04-02T04:38:37;98326.05;;;7.08;81.66
50710;BME280;37033;49.994;21.992;2023-04-02T04:41:13;98331.86;;;7.07;81.73
50710;BME280;37033;49.994;21.992;2023-04-02T04:43:47;98334.16;;;7.06;81.98
50710;BME280;37033;49.994;21.992;2023-04-02T04:46:24;98333.22;;;7.04;82.03
50710;BME280;37033;49.994;21.992;2023-04-02T04:49:01;98341.17;;;7.04;81.94
50710;BME280;37033;49.994;21.992;2023-04-02T04:51:38;98342.09;;;7.04;82.02
50710;BME280;37033;49.994;21.992;2023-04-02T04:54:13;98340.08;;;7.04;81.99
50710;BME280;37033;49.994;21.992;2023-04-02T04:56:50;98345.02;;;7.05;82.15
50710;BME280;37033;49.994;21.992;2023-04-02T04:59:28;98346.73;;;7.05;82.22
50710;BME280;37033;49.994;21.992;2023-04-02T05:02:05;98352.23;;;7.06;82.26
50710;BME280;37033;49.994;21.992;2023-04-02T05:04:39;98352.02;;;7.07;82.21
50710;BME280;37033;49.994;21.992;2023-04-02T05:07:13;98350.38;;;7.08;82.24
50710;BME280;37033;49.994;21.992;2023-04-02T05:09:51;98355.05;;;7.09;82.19
50710;BME280;37033;49.994;21.992;2023-04-02T05:12:31;98353.75;;;7.10;81.98
50710;BME280;37033;49.994;21.992;2023-04-02T05:15:08;98355.55;;;7.11;81.92
50710;BME280;37033;49.994;21.992;2023-04-02T05:17:46;98360.91;;;7.12;82.10
50710;BME280;37033;49.994;21.992;2023-04-02T05:20:22;98362.67;;;7.14;81.90
50710;BME280;37033;49.994;21.992;2023-04-02T05:22:58;98366.03;;;7.14;82.00
50710;BME280;37033;49.994;21.992;2023-04-02T05:25:33;98367.20;;;7.16;82.03
50710;BME280;37033;49.994;21.992;2023-04-02T05:28:06;98367.61;;;7.18;81.93
50710;BME280;37033;49.994;21.992;2023-04-02T05:30:48;98366.60;;;7.19;81.98
50710;BME280;37033;49.994;21.992;2023-04-02T05:33:26;98370.15;;;7.18;81.86
50710;BME280;37033;49.994;21.992;2023-04-02T05:36:00;98375.84;;;7.18;82.00
50710;BME280;37033;49.994;21.992;2023-04-02T05:38:35;98378.13;;;7.20;81.99
50710;BME280;37033;49.994;21.992;2023-04-02T05:41:13;98381.46;;;7.21;81.99
50710;BME280;37033;49.994;21.992;2023-04-02T05:43:48;98386.00;;;7.21;81.95
50710;BME280;37033;49.994;21.992;2023-04-02T05:46:23;98388.79;;;7.20;81.93
50710;BME280;37033;49.994;21.992;2023-04-02T05:48:57;98393.38;;;7.20;82.07
50710;BME280;37033;49.994;21.992;2023-04-02T05:51:34;98394.19;;;7.20;81.88
50710;BME280;37033;49.994;21.992;2023-04-02T05:54:17;98392.11;;;7.19;81.85
50710;BME280;37033;49.994;21.992;2023-04-02T05:56:54;98393.41;;;7.19;81.71
50710;BME280;37033;49.994;21.992;2023-04-02T05:59:26;98394.95;;;7.20;81.70
50710;BME280;37033;49.994;21.992;2023-04-02T06:02:01;98398.08;;;7.20;81.28
50710;BME280;37033;49.994;21.992;2023-04-02T06:04:40;98406.08;;;7.19;81.36
50710;BME280;37033;49.994;21.992;2023-04-02T06:07:16;98414.38;;;7.21;81.10
50710;BME280;37033;49.994;21.992;2023-04-02T06:09:51;98424.10;;;7.21;81.08
50710;BME280;37033;49.994;21.992;2023-04-02T06:12:27;98430.50;;;7.22;80.77
50710;BME280;37033;49.994;21.992;2023-04-02T06:15:00;98430.78;;;7.23;80.16
50710;BME280;37033;49.994;21.992;2023-04-02T06:17:34;98439.35;;;7.22;79.75
50710;BME280;37033;49.994;21.992;2023-04-02T06:20:16;98436.28;;;7.22;79.65
50710;BME280;37033;49.994;21.992;2023-04-02T06:22:50;98439.77;;;7.23;79.38
50710;BME280;37033;49.994;21.992;2023-04-02T06:25:25;98439.23;;;7.24;79.11
50710;BME280;37033;49.994;21.992;2023-04-02T06:27:58;98444.33;;;7.25;79.13
50710;BME280;37033;49.994;21.992;2023-04-02T06:30:33;98441.52;;;7.28;79.28
50710;BME280;37033;49.994;21.992;2023-04-02T06:33:05;98447.38;;;7.32;79.22
50710;BME280;37033;49.994;21.992;2023-04-02T06:35:42;98448.62;;;7.35;79.14
50710;BME280;37033;49.994;21.992;2023-04-02T06:38:17;98455.73;;;7.40;79.02
50710;BME280;37033;49.994;21.992;2023-04-02T06:40:53;98456.64;;;7.42;78.86
50710;BME280;37033;49.994;21.992;2023-04-02T06:43:29;98457.60;;;7.45;78.95
50710;BME280;37033;49.994;21.992;2023-04-02T06:46:08;98457.14;;;7.46;78.67
50710;BME280;37033;49.994;21.992;2023-04-02T06:48:44;98457.45;;;7.48;78.69
50710;BME280;37033;49.994;21.992;2023-04-02T06:51:19;98462.95;;;7.51;78.84
50710;BME280;37033;49.994;21.992;2023-04-02T06:53:52;98463.80;;;7.52;78.63
50710;BME280;37033;49.994;21.992;2023-04-02T06:56:29;98464.67;;;7.52;78.50
50710;BME280;37033;49.994;21.992;2023-04-02T06:59:08;98463.41;;;7.51;78.66
50710;BME280;37033;49.994;21.992;2023-04-02T07:01:45;98467.13;;;7.52;78.75
50710;BME280;37033;49.994;21.992;2023-04-02T07:04:19;98464.02;;;7.52;78.79
50710;BME280;37033;49.994;21.992;2023-04-02T07:06:50;98468.72;;;7.52;78.78
50710;BME280;37033;49.994;21.992;2023-04-02T07:09:22;98471.09;;;7.52;78.79
50710;BME280;37033;49.994;21.992;2023-04-02T07:11:54;98474.75;;;7.51;78.87
50710;BME280;37033;49.994;21.992;2023-04-02T07:14:24;98479.84;;;7.51;78.90
50710;BME280;37033;49.994;21.992;2023-04-02T07:16:55;98481.73;;;7.50;78.84
50710;BME280;37033;49.994;21.992;2023-04-02T07:19:26;98483.38;;;7.49;78.90
50710;BME280;37033;49.994;21.992;2023-04-02T07:21:57;98493.28;;;7.47;78.86
50710;BME280;37033;49.994;21.992;2023-04-02T07:24:28;98492.70;;;7.45;78.82
50710;BME280;37033;49.994;21.992;2023-04-02T07:26:59;98496.11;;;7.45;78.88
50710;BME280;37033;49.994;21.992;2023-04-02T07:29:30;98499.48;;;7.47;78.97
50710;BME280;37033;49.994;21.992;2023-04-02T07:32:00;98505.27;;;7.49;78.83
50710;BME280;37033;49.994;21.992;2023-04-02T07:34:31;98504.77;;;7.51;78.50
50710;BME280;37033;49.994;21.992;2023-04-02T07:37:02;98508.75;;;7.53;78.48
50710;BME280;37033;49.994;21.992;2023-04-02T07:39:33;98512.33;;;7.56;78.24
50710;BME280;37033;49.994;21.992;2023-04-02T07:42:04;98511.71;;;7.61;78.33
50710;BME280;37033;49.994;21.992;2023-04-02T07:44:36;98509.75;;;7.67;78.16
50710;BME280;37033;49.994;21.992;2023-04-02T07:47:07;98514.55;;;7.77;78.30
50710;BME280;37033;49.994;21.992;2023-04-02T07:49:39;98513.42;;;7.86;77.68
50710;BME280;37033;49.994;21.992;2023-04-02T07:52:10;98517.75;;;7.92;77.60
50710;BME280;37033;49.994;21.992;2023-04-02T07:54:41;98517.59;;;7.95;77.25
50710;BME280;37033;49.994;21.992;2023-04-02T07:57:12;98521.63;;;7.98;77.25
50710;BME280;37033;49.994;21.992;2023-04-02T07:59:42;98529.40;;;8.00;76.71
50710;BME280;37033;49.994;21.992;2023-04-02T08:02:20;98530.96;;;7.99;76.46
50710;BME280;37033;49.994;21.992;2023-04-02T08:04:51;98526.21;;;8.00;76.66
50710;BME280;37033;49.994;21.992;2023-04-02T08:07:22;98532.36;;;8.02;76.59
50710;BME280;37033;49.994;21.992;2023-04-02T08:09:52;98534.59;;;8.09;76.76
50710;BME280;37033;49.994;21.992;2023-04-02T08:12:23;98537.14;;;8.13;76.41
50710;BME280;37033;49.994;21.992;2023-04-02T08:14:54;98540.34;;;8.14;76.16
50710;BME280;37033;49.994;21.992;2023-04-02T08:17:25;98542.04;;;8.11;76.02
50710;BME280;37033;49.994;21.992;2023-04-02T08:19:59;98548.08;;;8.07;75.88
50710;BME280;37033;49.994;21.992;2023-04-02T08:22:30;98552.96;;;8.04;76.05
50710;BME280;37033;49.994;21.992;2023-04-02T08:25:02;98556.50;;;8.02;76.25
50710;BME280;37033;49.994;21.992;2023-04-02T08:27:32;98562.46;;;8.02;76.31
50710;BME280;37033;49.994;21.992;2023-04-02T08:30:04;98563.04;;;8.01;76.10
50710;BME280;37033;49.994;21.992;2023-04-02T08:32:36;98566.28;;;7.98;75.91
50710;BME280;37033;49.994;21.992;2023-04-02T08:35:11;98566.30;;;7.93;75.50
50710;BME280;37033;49.994;21.992;2023-04-02T08:37:43;98567.40;;;7.90;75.79
50710;BME280;37033;49.994;21.992;2023-04-02T08:40:24;98565.85;;;7.92;75.69
50710;BME280;37033;49.994;21.992;2023-04-02T08:46:03;98571.61;;;8.06;75.88
50710;BME280;37033;49.994;21.992;2023-04-02T08:48:38;98575.05;;;8.14;75.56
50710;BME280;37033;49.994;21.992;2023-04-02T08:51:20;98571.66;;;8.22;75.45
50710;BME280;37033;49.994;21.992;2023-04-02T08:53:54;98574.86;;;8.29;75.21
50710;BME280;37033;49.994;21.992;2023-04-02T08:56:31;98577.71;;;8.38;75.01
50710;BME280;37033;49.994;21.992;2023-04-02T08:59:10;98582.14;;;8.43;74.67
50710;BME280;37033;49.994;21.992;2023-04-02T09:01:53;98582.29;;;8.45;74.06
50710;BME280;37033;49.994;21.992;2023-04-02T09:04:26;98586.98;;;8.44;73.48
50710;BME280;37033;49.994;21.992;2023-04-02T09:06:57;98586.75;;;8.41;73.37
50710;BME280;37033;49.994;21.992;2023-04-02T09:09:29;98585.09;;;8.39;73.20
50710;BME280;37033;49.994;21.992;2023-04-02T09:12:05;98584.19;;;8.42;73.26
50710;BME280;37033;49.994;21.992;2023-04-02T09:14:42;98583.33;;;8.49;73.42
50710;BME280;37033;49.994;21.992;2023-04-02T09:17:19;98589.64;;;8.58;72.96
50710;BME280;37033;49.994;21.992;2023-04-02T09:19:55;98592.12;;;8.62;72.30
50710;BME280;37033;49.994;21.992;2023-04-02T09:22:28;98595.05;;;8.65;72.15
50710;BME280;37033;49.994;21.992;2023-04-02T09:25:01;98597.09;;;8.68;72.25
50710;BME280;37033;49.994;21.992;2023-04-02T09:27:34;98600.39;;;8.74;71.37
50710;BME280;37033;49.994;21.992;2023-04-02T09:30:09;98601.83;;;8.72;70.02
50710;BME280;37033;49.994;21.992;2023-04-02T09:32:49;98600.80;;;8.66;69.75
50710;BME280;37033;49.994;21.992;2023-04-02T09:35:22;98594.70;;;8.67;70.36
50710;BME280;37033;49.994;21.992;2023-04-02T09:38:15;98604.33;;;8.73;70.17
50710;BME280;37033;49.994;21.992;2023-04-02T09:40:50;98610.27;;;8.76;69.54
50710;BME280;37033;49.994;21.992;2023-04-02T09:43:28;98611.52;;;8.76;69.76
50710;BME280;37033;49.994;21.992;2023-04-02T09:46:02;98621.30;;;8.78;69.87
50710;BME280;37033;49.994;21.992;2023-04-02T09:48:36;98622.13;;;8.78;69.48
50710;BME280;37033;49.994;21.992;2023-04-02T09:51:15;98626.07;;;8.77;69.69
50710;BME280;37033;49.994;21.992;2023-04-02T09:53:48;98629.40;;;8.76;69.50
50710;BME280;37033;49.994;21.992;2023-04-02T09:56:20;98628.93;;;8.70;69.23
50710;BME280;37033;49.994;21.992;2023-04-02T09:59:04;98628.34;;;8.63;69.65
50710;BME280;37033;49.994;21.992;2023-04-02T10:01:37;98631.28;;;8.61;69.94
50710;BME280;37033;49.994;21.992;2023-04-02T10:04:34;98629.27;;;8.60;69.79
50710;BME280;37033;49.994;21.992;2023-04-02T10:07:28;98626.71;;;8.56;70.13
50710;BME280;37033;49.994;21.992;2023-04-02T10:10:00;98629.82;;;8.58;70.16
50710;BME280;37033;49.994;21.992;2023-04-02T10:12:37;98631.62;;;8.58;70.15
50710;BME280;37033;49.994;21.992;2023-04-02T10:15:16;98630.67;;;8.60;70.21
50710;BME280;37033;49.994;21.992;2023-04-02T10:17:58;98635.24;;;8.61;70.25
50710;BME280;37033;49.994;21.992;2023-04-02T10:20:33;98637.14;;;8.61;70.19
50710;BME280;37033;49.994;21.992;2023-04-02T10:23:07;98637.64;;;8.62;70.36
50710;BME280;37033;49.994;21.992;2023-04-02T10:25:47;98643.45;;;8.63;70.47
50710;BME280;37033;49.994;21.992;2023-04-02T10:28:27;98644.60;;;8.63;70.55
50710;BME280;37033;49.994;21.992;2023-04-02T10:31:06;98648.74;;;8.64;70.32
50710;BME280;37033;49.994;21.992;2023-04-02T10:33:40;98648.95;;;8.64;70.39
50710;BME280;37033;49.994;21.992;2023-04-02T10:36:22;98654.67;;;8.63;70.61
50710;BME280;37033;49.994;21.992;2023-04-02T10:39:02;98660.83;;;8.64;70.67
50710;BME280;37033;49.994;21.992;2023-04-02T10:41:43;98661.49;;;8.66;70.84
50710;BME280;37033;49.994;21.992;2023-04-02T10:44:23;98666.74;;;8.68;70.70
50710;BME280;37033;49.994;21.992;2023-04-02T10:47:06;98669.38;;;8.67;70.76
50710;BME280;37033;49.994;21.992;2023-04-02T10:49:43;98671.34;;;8.69;70.59
50710;BME280;37033;49.994;21.992;2023-04-02T10:52:20;98674.55;;;8.67;70.53
50710;BME280;37033;49.994;21.992;2023-04-02T10:54:55;98676.23;;;8.66;70.34
50710;BME280;37033;49.994;21.992;2023-04-02T10:57:35;98680.32;;;8.65;70.48
50710;BME280;37033;49.994;21.992;2023-04-02T11:00:15;98684.30;;;8.66;70.19
50710;BME280;37033;49.994;21.992;2023-04-02T11:02:51;98685.78;;;8.63;70.06
50710;BME280;37033;49.994;21.992;2023-04-02T11:05:32;98684.14;;;8.62;70.27
50710;BME280;37033;49.994;21.992;2023-04-02T11:08:17;98686.20;;;8.63;70.23
50710;BME280;37033;49.994;21.992;2023-04-02T11:10:54;98692.70;;;8.63;70.36
50710;BME280;37033;49.994;21.992;2023-04-02T11:13:29;98692.64;;;8.62;70.21
50710;BME280;37033;49.994;21.992;2023-04-02T11:16:00;98696.66;;;8.62;70.56
50710;BME280;37033;49.994;21.992;2023-04-02T11:18:33;98698.70;;;8.61;70.48
50710;BME280;37033;49.994;21.992;2023-04-02T11:21:07;98707.05;;;8.58;70.74
50710;BME280;37033;49.994;21.992;2023-04-02T11:24:00;98710.70;;;8.49;71.14
50710;BME280;37033;49.994;21.992;2023-04-02T11:26:35;98712.63;;;8.45;71.52
50710;BME280;37033;49.994;21.992;2023-04-02T11:29:13;98714.08;;;8.44;71.43
50710;BME280;37033;49.994;21.992;2023-04-02T11:31:45;98714.76;;;8.43;71.61
50710;BME280;37033;49.994;21.992;2023-04-02T11:37:38;98717.91;;;8.42;71.47
50710;BME280;37033;49.994;21.992;2023-04-02T11:46:37;98725.09;;;8.45;70.69
50710;BME280;37033;49.994;21.992;2023-04-02T11:52:04;98734.00;;;8.51;69.85
50710;BME280;37033;49.994;21.992;2023-04-02T11:54:56;98731.06;;;8.49;70.02
50710;BME280;37033;49.994;21.992;2023-04-02T11:57:48;98733.73;;;8.54;70.21
50710;BME280;37033;49.994;21.992;2023-04-02T12:00:29;98731.25;;;8.58;70.08
50710;BME280;37033;49.994;21.992;2023-04-02T12:03:18;98729.56;;;8.64;70.31
50710;BME280;37033;49.994;21.992;2023-04-02T12:05:56;98733.82;;;8.71;70.21
50710;BME280;37033;49.994;21.992;2023-04-02T12:08:39;98732.96;;;8.78;70.55
50710;BME280;37033;49.994;21.992;2023-04-02T12:11:15;98738.29;;;8.86;70.49
50710;BME280;37033;49.994;21.992;2023-04-02T12:13:53;98742.88;;;8.92;70.04
50710;BME280;37033;49.994;21.992;2023-04-02T12:16:27;98742.36;;;8.87;69.65
50710;BME280;37033;49.994;21.992;2023-04-02T12:19:02;98745.02;;;8.79;69.62
50710;BME280;37033;49.994;21.992;2023-04-02T12:21:38;98746.13;;;8.75;69.71
50710;BME280;37033;49.994;21.992;2023-04-02T12:24:18;98744.14;;;8.69;69.83
50710;BME280;37033;49.994;21.992;2023-04-02T12:26:49;98746.31;;;8.69;69.95
50710;BME280;37033;49.994;21.992;2023-04-02T12:29:36;98744.46;;;8.69;69.95
50710;BME280;37033;49.994;21.992;2023-04-02T12:32:19;98744.27;;;8.72;70.02
50710;BME280;37033;49.994;21.992;2023-04-02T12:34:52;98741.36;;;8.78;70.03
50710;BME280;37033;49.994;21.992;2023-04-02T12:37:26;98744.61;;;8.85;69.79
50710;BME280;37033;49.994;21.992;2023-04-02T12:39:59;98746.67;;;8.89;69.74
50710;BME280;37033;49.994;21.992;2023-04-02T12:42:35;98751.23;;;8.92;69.49
50710;BME280;37033;49.994;21.992;2023-04-02T12:45:20;98755.41;;;8.92;69.32
50710;BME280;37033;49.994;21.992;2023-04-02T12:47:51;98758.64;;;8.91;69.22
50710;BME280;37033;49.994;21.992;2023-04-02T12:50:23;98764.92;;;8.84;69.02
50710;BME280;37033;49.994;21.992;2023-04-02T12:52:54;98765.12;;;8.80;69.25
50710;BME280;37033;49.994;21.992;2023-04-02T12:55:27;98766.85;;;8.76;69.26
50710;BME280;37033;49.994;21.992;2023-04-02T12:57:59;98769.74;;;8.71;69.28
50710;BME280;37033;49.994;21.992;2023-04-02T13:00:33;98769.48;;;8.71;69.15
50710;BME280;37033;49.994;21.992;2023-04-02T13:03:20;98771.70;;;8.68;69.16
50710;BME280;37033;49.994;21.992;2023-04-02T13:05:53;98777.98;;;8.65;68.92
50710;BME280;37033;49.994;21.992;2023-04-02T13:08:28;98772.39;;;8.62;69.10
50710;BME280;37033;49.994;21.992;2023-04-02T13:11:02;98774.75;;;8.60;69.00
50710;BME280;37033;49.994;21.992;2023-04-02T13:13:35;98778.95;;;8.55;69.01
50710;BME280;37033;49.994;21.992;2023-04-02T13:19:22;98778.34;;;8.43;69.43
50710;BME280;37033;49.994;21.992;2023-04-02T13:21:55;98779.96;;;8.33;69.75
50710;BME280;37033;49.994;21.992;2023-04-02T13:24:27;98791.15;;;8.28;69.58
50710;BME280;37033;49.994;21.992;2023-04-02T13:26:59;98789.67;;;8.17;69.20
50710;BME280;37033;49.994;21.992;2023-04-02T13:29:31;98789.16;;;8.09;69.54
50710;BME280;37033;49.994;21.992;2023-04-02T13:32:04;98794.25;;;8.07;69.85
50710;BME280;37033;49.994;21.992;2023-04-02T13:34:36;98795.75;;;8.04;69.70
50710;BME280;37033;49.994;21.992;2023-04-02T13:37:07;98794.09;;;7.99;69.94
50710;BME280;37033;49.994;21.992;2023-04-02T13:39:39;98797.96;;;7.99;70.21
50710;BME280;37033;49.994;21.992;2023-04-02T13:42:12;98796.83;;;7.96;70.31
50710;BME280;37033;49.994;21.992;2023-04-02T13:44:42;98803.31;;;7.95;70.20
50710;BME280;37033;49.994;21.992;2023-04-02T13:47:15;98803.23;;;7.95;70.42
50710;BME280;37033;49.994;21.992;2023-04-02T13:49:46;98807.52;;;7.93;70.54
50710;BME280;37033;49.994;21.992;2023-04-02T13:52:17;98808.31;;;7.88;70.83
50710;BME280;37033;49.994;21.992;2023-04-02T13:54:49;98811.12;;;7.83;71.18
50710;BME280;37033;49.994;21.992;2023-04-02T13:57:22;98819.13;;;7.78;71.44
50710;BME280;37033;49.994;21.992;2023-04-02T13:59:53;98820.17;;;7.74;71.56
50710;BME280;37033;49.994;21.992;2023-04-02T14:02:25;98820.69;;;7.68;71.54
50710;BME280;37033;49.994;21.992;2023-04-02T14:05:01;98818.45;;;7.62;71.57